Airfield :
LOGIN :

Register | Disclaimer

   EN    FR    IT 

 










Legend :    VFR   Marginal VFR   IFR   Intensive IFR   Very Intensive IFR
Visi :
Ceiling :
>= 8 km
>= 3000ft
5 to 8 km
1000 to 3000 ft
1500m to 5 km
500 to 1000 ft
800 to 1500m
200 to 500 ft
< 800m
< 200 ft
Symbols :   Thunderstorms  Fog  Heavy snow  Heavy precipitations  Wind > 20 kt
SIGMETs :     Misc.  Thunderstorms  Icing  Turbulence  Mountain Waves  Volcanic Ashes






- Airport Elevation : 220 ft
- IATA code : CWL


EGFF - Cardiff Rhoose

CURRENT METAR :
  • 011220Z AUTO 08004KT 030V120 1100 R12/1300U BR OVC002 05/05 Q1029

EXPIRED METARs :
  • 011150Z AUTO 08006KT 0400 R12/0500N FG VV/// 05/05 Q1029
  • 011120Z AUTO 07006KT 0300 R12/0400N FG VV/// 05/05 Q1030
  • 011050Z AUTO 07007KT 0250 R12/0375N FG VV/// 05/05 Q1030
  • 011020Z AUTO 07007KT 0250 R12/0350N FG VV/// 05/04 Q1030
  • 010950Z AUTO 07007KT 0150 R12/0325N FG VV/// 04/04 Q1030

TAF TAF EGFF
Valid from the 01 at 12:00 until the 02 at 12:00 UTC


011104Z 0112/0212 06005KT 0300 FG VV///
BECMG 0112/0115 9999 NSW FEW010
BECMG 0115/0118 3000 BR BKN003
PROB30 0115/0118 0300 FG BKN000
PROB40 0118/0209 0400 FG VV///
BECMG 0209/0212 9999 NSW FEW010
ATIS : +44 1446 729 319



MET'MAP, your aeronautical weather chart ! - Copyright ORBIFLY December 2007 - Disclaimer

ORBIFLY MET'MAP TEAM :

Programming & Development : Alexandra Zaïnal
Original concept : Baudouin d'Aumeries
Technical & hardware support : Manuel Goepfert
Assistance : Marc-Olivier Méhu




SOURCES & CREDITS :

   NOAA